Time;durP1;ratioP1;P1;durP2;ratioP2;P2;SDS_P1;SDS_P2;PMS_P1;PMS_P2;Temp;Humidity;BMP_temperature;BMP_pressure;BME280_temperature;BME280_humidity;BME280_pressure;Samples;Min_cycle;Max_cycle;Signal;HPM_P1;HPM_P2
2023/08/10 00:00:33;;;;;;;4.37;3.10;;;13.80;99.90;;;;;;5021611;28;20220;-69
2023/08/10 00:02:59;;;;;;;4.20;2.40;;;13.80;99.90;;;;;;5044928;28;20951;-72
2023/08/10 00:05:25;;;;;;;3.50;2.97;;;13.70;99.90;;;;;;5047163;28;20238;-70
2023/08/10 00:07:51;;;;;;;3.10;2.53;;;13.70;99.90;;;;;;5046426;28;20434;-71
2023/08/10 00:10:17;;;;;;;4.20;2.80;;;13.70;99.90;;;;;;5049880;28;20205;-71
2023/08/10 00:12:42;;;;;;;3.67;2.50;;;13.70;99.90;;;;;;5051909;28;20178;-71
2023/08/10 00:15:08;;;;;;;3.07;2.77;;;13.60;99.90;;;;;;5050315;28;20213;-71
2023/08/10 00:17:34;;;;;;;3.43;2.40;;;13.60;99.90;;;;;;5050314;28;20241;-70
2023/08/10 00:20:00;;;;;;;3.30;2.60;;;13.60;99.90;;;;;;5050184;28;20520;-71
2023/08/10 00:22:25;;;;;;;4.47;2.87;;;13.60;99.90;;;;;;5017983;28;20170;-70
2023/08/10 00:24:51;;;;;;;2.63;2.43;;;13.60;99.90;;;;;;5043104;28;20679;-71
2023/08/10 00:27:17;;;;;;;3.17;2.67;;;13.60;99.90;;;;;;5044694;28;20601;-71
2023/08/10 00:29:44;;;;;;;4.60;3.07;;;13.60;99.90;;;;;;5044148;28;20180;-71
2023/08/10 00:32:10;;;;;;;5.50;2.43;;;13.60;99.90;;;;;;5044685;28;20179;-71
2023/08/10 00:34:35;;;;;;;3.50;2.33;;;13.70;99.90;;;;;;5043577;28;20461;-71
2023/08/10 00:37:02;;;;;;;2.87;2.33;;;13.70;99.90;;;;;;5042578;28;20287;-71
2023/08/10 00:39:28;;;;;;;3.07;2.80;;;13.70;99.90;;;;;;5045022;28;20565;-71
2023/08/10 00:41:53;;;;;;;3.63;2.20;;;13.70;99.90;;;;;;5045339;28;20478;-70
2023/08/10 00:44:19;;;;;;;5.43;2.73;;;13.70;99.90;;;;;;5043942;28;20229;-72
2023/08/10 00:46:45;;;;;;;2.50;2.27;;;13.90;99.90;;;;;;5044804;28;20210;-70
2023/08/10 00:49:11;;;;;;;3.27;2.10;;;13.90;99.90;;;;;;5045424;28;20190;-70
2023/08/10 00:51:37;;;;;;;4.10;2.40;;;13.90;99.90;;;;;;5042930;28;20430;-70
2023/08/10 00:54:04;;;;;;;2.50;2.30;;;13.90;99.90;;;;;;5041681;28;20202;-70
2023/08/10 00:56:30;;;;;;;2.57;2.10;;;13.90;99.90;;;;;;5043281;28;20211;-70
2023/08/10 00:58:56;;;;;;;3.93;2.53;;;13.90;99.90;;;;;;5043246;28;20429;-69
2023/08/10 01:01:21;;;;;;;2.70;1.90;;;13.90;99.90;;;;;;5041639;28;20185;-69
2023/08/10 01:03:47;;;;;;;3.40;2.00;;;13.90;99.90;;;;;;5040024;28;20212;-70
2023/08/10 01:06:29;;;;;;;4.43;2.70;;;14.00;99.90;;;;;;5041808;28;20195;-70
2023/08/10 01:09:10;;;;;;;2.27;2.07;;;13.90;99.90;;;;;;5038862;28;20214;-70
2023/08/10 01:11:44;;;;;;;1.80;1.70;;;13.90;99.90;;;;;;5039219;28;20471;-71
2023/08/10 01:14:31;;;;;;;3.90;2.10;;;13.90;99.90;;;;;;5046026;28;20461;-71
2023/08/10 01:16:59;;;;;;;3.83;3.03;;;13.90;99.90;;;;;;5020784;28;20433;-70
2023/08/10 01:19:35;;;;;;;9.20;2.90;;;13.90;99.90;;;;;;5049923;28;20423;-71
2023/08/10 01:22:28;;;;;;;3.77;2.47;;;13.90;99.90;;;;;;5017405;28;20438;-70
2023/08/10 01:25:05;;;;;;;2.33;2.13;;;13.90;99.90;;;;;;5044310;28;20588;-71
2023/08/10 01:27:32;;;;;;;3.00;2.67;;;13.90;99.90;;;;;;5044673;28;20433;-70
2023/08/10 01:30:00;;;;;;;4.60;2.40;;;13.90;99.90;;;;;;5043564;28;20442;-70
2023/08/10 01:32:32;;;;;;;2.00;1.80;;;13.90;99.90;;;;;;5045817;28;20487;-71
2023/08/10 01:34:59;;;;;;;2.27;2.10;;;14.00;99.90;;;;;;5043343;28;20485;-71
2023/08/10 01:37:25;;;;;;;4.00;1.90;;;13.90;99.90;;;;;;5043314;28;20441;-70
2023/08/10 01:39:51;;;;;;;3.23;2.30;;;13.90;99.90;;;;;;5043408;28;20430;-69
2023/08/10 01:42:16;;;;;;;2.30;2.17;;;13.90;99.90;;;;;;5043983;28;20782;-70
2023/08/10 01:44:42;;;;;;;3.40;2.70;;;13.90;99.90;;;;;;5040082;28;20290;-70
2023/08/10 01:47:17;;;;;;;7.20;2.50;;;13.90;99.90;;;;;;5015954;28;20192;-70
2023/08/10 01:49:46;;;;;;;3.07;2.50;;;13.80;99.90;;;;;;5044295;28;20202;-71
2023/08/10 01:52:13;;;;;;;4.93;3.57;;;13.80;99.90;;;;;;5043600;28;20425;-70
2023/08/10 01:54:39;;;;;;;3.40;2.80;;;13.80;99.90;;;;;;5043129;28;20469;-71
2023/08/10 01:57:06;;;;;;;3.90;3.30;;;13.80;99.90;;;;;;5046323;28;20437;-71
2023/08/10 01:59:32;;;;;;;4.40;2.63;;;13.70;99.90;;;;;;5049760;28;20467;-71
2023/08/10 02:01:57;;;;;;;2.50;2.30;;;13.70;99.90;;;;;;5049643;28;20979;-71
2023/08/10 02:04:23;;;;;;;3.17;2.30;;;13.70;99.90;;;;;;5049781;28;20738;-71
2023/08/10 02:06:49;;;;;;;2.50;2.10;;;13.60;99.90;;;;;;5046986;28;20176;-71
2023/08/10 02:09:14;;;;;;;2.40;2.20;;;13.60;99.90;;;;;;5047014;28;20180;-70
2023/08/10 02:11:40;;;;;;;1.90;1.77;;;13.60;99.90;;;;;;5046126;28;20179;-70
2023/08/10 02:14:05;;;;;;;4.60;2.47;;;13.60;99.90;;;;;;5050547;28;20199;-70
2023/08/10 02:16:31;;;;;;;2.30;2.00;;;13.60;99.90;;;;;;5053308;28;20211;-70
2023/08/10 02:18:57;;;;;;;1.90;1.80;;;13.60;99.90;;;;;;5050394;28;20179;-69
2023/08/10 02:21:23;;;;;;;2.10;1.87;;;13.50;99.90;;;;;;5051240;28;20175;-70
2023/08/10 02:23:50;;;;;;;3.40;1.90;;;13.70;99.90;;;;;;5051013;28;20202;-71
2023/08/10 02:26:16;;;;;;;2.50;2.03;;;13.60;99.90;;;;;;5046646;28;20893;-71
2023/08/10 02:28:42;;;;;;;4.10;2.10;;;13.60;99.90;;;;;;5047210;28;20433;-70
2023/08/10 02:31:08;;;;;;;2.07;1.80;;;13.50;99.90;;;;;;5021501;28;20534;-70
2023/08/10 02:33:33;;;;;;;3.23;1.90;;;13.60;99.90;;;;;;5047796;28;20190;-70
2023/08/10 02:35:59;;;;;;;5.57;1.70;;;13.50;99.90;;;;;;5049770;28;20205;-71
2023/08/10 02:38:25;;;;;;;3.67;2.20;;;13.50;99.90;;;;;;5047736;28;20309;-70
2023/08/10 02:40:50;;;;;;;3.40;2.10;;;13.50;99.90;;;;;;5046614;28;20672;-70
2023/08/10 02:43:16;;;;;;;1.87;1.77;;;13.50;99.90;;;;;;5045644;28;20820;-71
2023/08/10 02:45:41;;;;;;;6.13;2.97;;;13.40;99.90;;;;;;5048487;28;20188;-71
2023/08/10 02:48:07;;;;;;;3.20;2.20;;;13.40;99.90;;;;;;5046321;28;20179;-71
2023/08/10 02:50:32;;;;;;;3.47;1.87;;;13.30;99.90;;;;;;5046880;28;20206;-71
2023/08/10 02:52:58;;;;;;;3.90;2.03;;;13.30;99.90;;;;;;5048112;28;20313;-70
2023/08/10 02:55:24;;;;;;;2.90;1.90;;;13.30;99.90;;;;;;5046984;28;20205;-71
2023/08/10 02:57:50;;;;;;;2.87;2.17;;;13.20;99.90;;;;;;5048429;28;20222;-71
2023/08/10 03:00:17;;;;;;;2.70;2.10;;;13.20;99.90;;;;;;5049259;28;20940;-71
2023/08/10 03:02:43;;;;;;;3.83;2.03;;;13.20;99.90;;;;;;5048382;28;20189;-70
2023/08/10 03:05:09;;;;;;;3.73;2.43;;;13.10;99.90;;;;;;5049397;28;20469;-70
2023/08/10 03:07:36;;;;;;;3.63;2.30;;;13.10;99.90;;;;;;5049445;28;20440;-70
2023/08/10 03:10:02;;;;;;;2.90;1.97;;;13.10;99.90;;;;;;5047324;28;20186;-71
2023/08/10 03:12:27;;;;;;;3.93;2.50;;;13.10;99.90;;;;;;5048039;28;20792;-71
2023/08/10 03:14:53;;;;;;;2.60;2.10;;;13.10;99.90;;;;;;5046660;28;20468;-70
2023/08/10 03:17:19;;;;;;;3.53;2.20;;;13.00;99.90;;;;;;5048614;28;20182;-70
2023/08/10 03:19:44;;;;;;;2.80;1.90;;;13.00;99.90;;;;;;5050385;28;20187;-70
2023/08/10 03:22:10;;;;;;;2.73;1.90;;;13.00;99.90;;;;;;5048316;28;20183;-71
2023/08/10 03:24:37;;;;;;;4.60;2.53;;;13.00;99.90;;;;;;5049076;28;20253;-72
2023/08/10 03:27:03;;;;;;;3.70;2.13;;;13.00;99.90;;;;;;5051202;28;20183;-70
2023/08/10 03:29:28;;;;;;;2.93;2.20;;;13.00;99.90;;;;;;5057269;28;20487;-71
2023/08/10 03:31:54;;;;;;;3.57;2.40;;;13.00;99.90;;;;;;5044833;28;20620;-71
2023/08/10 03:34:20;;;;;;;3.50;2.10;;;13.00;99.90;;;;;;5045974;28;20273;-70
2023/08/10 03:36:45;;;;;;;4.07;2.10;;;13.00;99.90;;;;;;5044749;28;20592;-70
2023/08/10 03:39:11;;;;;;;3.83;2.00;;;13.00;99.90;;;;;;5044940;28;20178;-69
2023/08/10 03:41:37;;;;;;;5.17;1.90;;;13.00;99.90;;;;;;5046533;28;20212;-70
2023/08/10 03:44:03;;;;;;;3.83;1.83;;;13.10;99.90;;;;;;5046652;28;20199;-71
2023/08/10 03:46:28;;;;;;;2.87;1.90;;;13.10;99.90;;;;;;5046068;28;20494;-70
2023/08/10 03:48:54;;;;;;;4.63;2.27;;;13.00;99.90;;;;;;5028153;28;20179;-72
2023/08/10 03:51:20;;;;;;;6.73;2.77;;;13.00;99.90;;;;;;5045437;28;20194;-69
2023/08/10 03:53:45;;;;;;;6.73;2.23;;;12.90;99.90;;;;;;5045008;28;20207;-70
2023/08/10 03:56:11;;;;;;;2.87;2.30;;;12.90;99.90;;;;;;5046837;28;20768;-70
2023/08/10 03:58:37;;;;;;;2.60;2.27;;;13.00;99.90;;;;;;5045789;28;20186;-70
2023/08/10 04:01:03;;;;;;;5.10;2.30;;;12.90;99.90;;;;;;5046428;28;20206;-71
2023/08/10 04:03:29;;;;;;;5.50;2.37;;;13.00;99.90;;;;;;5044851;28;20174;-70
2023/08/10 04:05:55;;;;;;;4.33;2.00;;;12.90;99.90;;;;;;5045031;28;20515;-70
2023/08/10 04:08:20;;;;;;;3.17;2.60;;;12.90;99.90;;;;;;5044496;28;20262;-71
2023/08/10 04:10:47;;;;;;;7.60;2.47;;;12.90;99.90;;;;;;5047859;28;20202;-72
2023/08/10 04:13:12;;;;;;;4.10;2.80;;;12.90;99.90;;;;;;5047287;28;20194;-71
2023/08/10 04:15:38;;;;;;;3.13;2.43;;;12.90;99.90;;;;;;5048764;28;20464;-71
2023/08/10 04:18:04;;;;;;;4.83;2.33;;;13.00;99.90;;;;;;5021986;28;20204;-71
2023/08/10 04:20:30;;;;;;;2.90;2.20;;;13.10;99.90;;;;;;5021435;28;20171;-72
2023/08/10 04:22:57;;;;;;;3.90;2.40;;;13.10;99.90;;;;;;5049431;28;20179;-71
2023/08/10 04:25:23;;;;;;;5.07;2.50;;;13.20;99.90;;;;;;5027736;28;20466;-69
2023/08/10 04:27:48;;;;;;;5.03;2.50;;;13.30;99.90;;;;;;5043338;28;20433;-69
2023/08/10 04:30:14;;;;;;;4.43;2.30;;;13.30;99.90;;;;;;5046004;28;20265;-70
2023/08/10 04:32:40;;;;;;;4.57;2.90;;;13.40;99.90;;;;;;5045002;28;20245;-70
2023/08/10 04:35:06;;;;;;;2.23;2.00;;;13.50;99.90;;;;;;5044444;28;20203;-70
2023/08/10 04:37:32;;;;;;;3.47;2.03;;;13.60;99.90;;;;;;5042782;28;20175;-70
2023/08/10 04:39:57;;;;;;;4.20;2.23;;;13.70;99.90;;;;;;5043916;28;20520;-70
2023/08/10 04:42:23;;;;;;;4.30;2.03;;;13.70;99.90;;;;;;5044509;28;20549;-71
2023/08/10 04:44:49;;;;;;;5.13;1.90;;;13.70;99.90;;;;;;5044106;28;20202;-71
2023/08/10 04:47:14;;;;;;;3.10;2.10;;;13.70;99.90;;;;;;5044197;28;20550;-70
2023/08/10 04:49:41;;;;;;;3.23;2.50;;;13.80;99.90;;;;;;5044099;28;20236;-71
2023/08/10 04:52:07;;;;;;;6.27;2.33;;;13.90;99.90;;;;;;5045385;28;20271;-70
2023/08/10 04:54:33;;;;;;;4.43;1.93;;;13.90;99.90;;;;;;5044109;28;20489;-71
2023/08/10 04:56:58;;;;;;;4.97;1.80;;;13.90;99.90;;;;;;5040873;28;20179;-71
2023/08/10 04:59:24;;;;;;;5.20;2.20;;;14.00;99.90;;;;;;5045610;28;20660;-70
2023/08/10 05:01:49;;;;;;;3.00;1.87;;;14.10;99.90;;;;;;5045532;28;20180;-71
2023/08/10 05:04:15;;;;;;;5.00;2.00;;;14.20;99.90;;;;;;5044588;28;20219;-70
2023/08/10 05:06:42;;;;;;;2.63;2.40;;;14.30;99.90;;;;;;5044160;28;20178;-70
2023/08/10 05:09:07;;;;;;;5.10;2.93;;;14.20;99.90;;;;;;5043717;28;20171;-71
2023/08/10 05:11:33;;;;;;;5.60;2.20;;;14.30;99.90;;;;;;5046457;28;20502;-70
2023/08/10 05:13:59;;;;;;;4.27;2.00;;;14.40;99.90;;;;;;5045174;28;20677;-70
2023/08/10 05:16:25;;;;;;;6.50;2.30;;;14.40;99.90;;;;;;5043761;28;20212;-70
2023/08/10 05:18:50;;;;;;;1.93;1.50;;;14.50;99.90;;;;;;5044143;28;20549;-71
2023/08/10 05:21:17;;;;;;;3.70;2.27;;;14.50;99.90;;;;;;5044989;28;20951;-71
2023/08/10 05:23:43;;;;;;;2.60;1.80;;;14.60;99.90;;;;;;5044864;28;20255;-69
2023/08/10 05:26:10;;;;;;;3.93;1.73;;;14.80;99.90;;;;;;5027159;28;20590;-70
2023/08/10 05:28:36;;;;;;;2.60;2.00;;;15.20;99.90;;;;;;5042876;28;20466;-71
2023/08/10 05:31:01;;;;;;;4.70;2.13;;;15.60;99.90;;;;;;5027357;28;21037;-71
2023/08/10 05:33:27;;;;;;;7.03;2.03;;;15.60;99.90;;;;;;5046443;28;20240;-70
2023/08/10 05:35:53;;;;;;;3.50;2.20;;;15.50;99.90;;;;;;5044947;28;20200;-71
2023/08/10 05:38:18;;;;;;;6.50;2.03;;;15.40;99.90;;;;;;5045802;28;20648;-71
2023/08/10 05:40:44;;;;;;;3.60;2.57;;;15.50;99.90;;;;;;5045507;28;20259;-70
2023/08/10 05:43:09;;;;;;;2.13;1.93;;;16.00;99.90;;;;;;5042285;28;20179;-70
2023/08/10 05:45:35;;;;;;;5.10;2.13;;;16.40;99.90;;;;;;5042773;28;20202;-69
2023/08/10 05:48:01;;;;;;;5.63;2.27;;;16.70;99.90;;;;;;5018400;28;20277;-70
2023/08/10 05:50:27;;;;;;;3.40;2.00;;;17.60;99.90;;;;;;5042191;28;20195;-71
2023/08/10 05:52:53;;;;;;;5.27;2.40;;;18.10;99.90;;;;;;5038921;28;20273;-70
2023/08/10 05:55:19;;;;;;;4.30;2.47;;;18.40;99.90;;;;;;5043761;28;21001;-71
2023/08/10 05:57:45;;;;;;;19.13;7.60;;;19.50;99.90;;;;;;5040870;28;20173;-71
2023/08/10 06:00:14;;;;;;;6.50;1.70;;;19.80;99.90;;;;;;5043042;28;20443;-70
2023/08/10 06:02:41;;;;;;;3.97;2.27;;;19.20;99.90;;;;;;5043198;28;20170;-70
2023/08/10 06:05:07;;;;;;;5.90;2.27;;;18.80;99.90;;;;;;5040669;28;20823;-70
2023/08/10 06:07:33;;;;;;;4.87;2.10;;;18.90;99.90;;;;;;5043823;28;20510;-70
2023/08/10 06:10:00;;;;;;;6.10;2.00;;;18.70;99.90;;;;;;5025673;28;20495;-70
2023/08/10 06:12:25;;;;;;;4.17;1.97;;;18.40;99.90;;;;;;5046439;28;20995;-70
2023/08/10 06:14:51;;;;;;;6.40;2.03;;;18.60;99.90;;;;;;5045982;28;20459;-70
2023/08/10 06:17:16;;;;;;;4.30;1.57;;;18.10;99.90;;;;;;5045826;28;20177;-72
2023/08/10 06:19:51;;;;;;;8.37;2.10;;;18.60;99.90;;;;;;5043800;28;20311;-70
2023/08/10 06:22:17;;;;;;;4.27;2.17;;;19.10;99.90;;;;;;5045833;28;20238;-71
2023/08/10 06:24:43;;;;;;;3.20;1.67;;;19.30;99.90;;;;;;5049712;28;20873;-71
2023/08/10 06:27:09;;;;;;;4.97;1.60;;;18.30;99.90;;;;;;5021349;28;20535;-71
2023/08/10 06:29:35;;;;;;;7.13;1.90;;;17.80;99.90;;;;;;5024922;28;20488;-70
2023/08/10 06:32:08;;;;;;;2.87;1.77;;;18.00;99.90;;;;;;5044336;28;20443;-71
2023/08/10 06:34:34;;;;;;;6.03;1.90;;;18.40;99.90;;;;;;5046273;28;20545;-72
2023/08/10 06:37:00;;;;;;;2.83;1.63;;;18.20;99.90;;;;;;5046483;28;20432;-71
2023/08/10 06:39:29;;;;;;;5.77;2.20;;;18.20;99.90;;;;;;5047746;28;20439;-72
2023/08/10 06:41:55;;;;;;;5.77;2.77;;;18.00;99.90;;;;;;5047919;28;20434;-70
2023/08/10 06:44:21;;;;;;;2.63;1.73;;;17.80;99.90;;;;;;5031196;28;20809;-70
2023/08/10 06:46:46;;;;;;;8.43;2.60;;;18.00;99.90;;;;;;5046989;28;20314;-71
2023/08/10 06:49:12;;;;;;;6.57;2.27;;;18.20;99.90;;;;;;5047641;28;20203;-72
2023/08/10 06:51:38;;;;;;;6.03;2.17;;;17.90;99.90;;;;;;5042912;28;20186;-72
2023/08/10 06:54:04;;;;;;;7.00;2.43;;;18.10;99.90;;;;;;5047004;28;20248;-71
2023/08/10 06:56:30;;;;;;;6.70;2.27;;;18.40;99.90;;;;;;5048303;28;20232;-74
2023/08/10 06:58:55;;;;;;;4.17;1.90;;;18.70;99.90;;;;;;5045506;28;20466;-72
2023/08/10 07:01:21;;;;;;;8.30;2.50;;;18.40;99.90;;;;;;5044491;28;20186;-73
2023/08/10 07:03:47;;;;;;;3.77;1.60;;;18.30;99.90;;;;;;5044666;28;20267;-71
2023/08/10 07:06:12;;;;;;;6.07;1.80;;;18.50;99.90;;;;;;5047697;28;20174;-72
2023/08/10 07:08:39;;;;;;;8.07;2.33;;;18.80;99.90;;;;;;5046996;28;20267;-72
2023/08/10 07:11:05;;;;;;;4.53;2.03;;;19.10;99.90;;;;;;5040080;28;20231;-73
2023/08/10 07:13:30;;;;;;;3.73;1.93;;;19.20;99.90;;;;;;5043472;28;20439;-72
2023/08/10 07:15:56;;;;;;;7.10;3.53;;;19.50;99.90;;;;;;5040258;28;20198;-73
2023/08/10 07:18:22;;;;;;;5.73;1.70;;;20.70;99.90;;;;;;5044156;28;20657;-70
2023/08/10 07:20:48;;;;;;;3.83;1.50;;;21.20;99.90;;;;;;5043047;28;20187;-71
2023/08/10 07:23:17;;;;;;;3.97;1.80;;;22.50;99.90;;;;;;5042964;28;20921;-71
2023/08/10 07:25:45;;;;;;;16.23;13.13;;;22.10;99.90;;;;;;5044160;28;20436;-70
2023/08/10 07:28:11;;;;;;;3.80;2.80;;;22.10;99.90;;;;;;5045849;28;20801;-70
2023/08/10 07:30:37;;;;;;;4.07;1.60;;;21.00;99.90;;;;;;5043389;28;20428;-70
2023/08/10 07:33:03;;;;;;;4.63;1.80;;;20.40;99.90;;;;;;5044598;28;20921;-70
2023/08/10 07:35:29;;;;;;;3.20;1.30;;;21.00;99.90;;;;;;5047822;28;20516;-71
2023/08/10 07:37:55;;;;;;;3.10;1.60;;;21.40;99.90;;;;;;5047503;28;20436;-71
2023/08/10 07:40:20;;;;;;;4.60;1.50;;;21.00;99.90;;;;;;5022758;28;20211;-71
2023/08/10 07:42:46;;;;;;;6.03;1.33;;;22.30;99.90;;;;;;5046995;28;20262;-71
2023/08/10 07:45:12;;;;;;;3.40;1.70;;;22.20;99.90;;;;;;5045328;28;20197;-71
2023/08/10 07:47:38;;;;;;;5.13;2.03;;;22.20;99.90;;;;;;5047999;28;20182;-71
2023/08/10 07:50:05;;;;;;;3.27;1.47;;;23.20;99.90;;;;;;5043361;28;20279;-70
2023/08/10 07:52:31;;;;;;;3.53;1.83;;;22.60;99.90;;;;;;5042068;28;20441;-70
2023/08/10 07:54:56;;;;;;;13.67;10.13;;;22.10;99.90;;;;;;5041623;28;20518;-71
2023/08/10 07:57:22;;;;;;;2.57;1.30;;;22.30;99.90;;;;;;5042316;28;20642;-70
2023/08/10 07:59:48;;;;;;;6.83;3.60;;;22.10;99.90;;;;;;5039792;28;20191;-69
2023/08/10 08:02:13;;;;;;;3.87;1.60;;;21.00;99.90;;;;;;5043446;28;20188;-70
2023/08/10 08:04:39;;;;;;;3.20;2.13;;;21.00;99.90;;;;;;5041593;28;20220;-73
2023/08/10 08:07:05;;;;;;;6.53;1.67;;;20.50;99.90;;;;;;5040309;28;20197;-69
2023/08/10 08:09:30;;;;;;;4.17;2.27;;;20.80;99.90;;;;;;5042276;28;20698;-68
2023/08/10 08:11:56;;;;;;;5.80;2.07;;;20.80;99.90;;;;;;5037586;28;20601;-68
2023/08/10 08:14:21;;;;;;;2.27;1.03;;;21.20;99.90;;;;;;5040792;28;20683;-70
2023/08/10 08:16:47;;;;;;;2.47;1.50;;;20.50;99.90;;;;;;5042759;28;20267;-71
2023/08/10 08:19:13;;;;;;;7.10;1.90;;;20.60;99.90;;;;;;5042652;28;20178;-71
2023/08/10 08:21:38;;;;;;;7.27;1.90;;;21.80;99.90;;;;;;5041156;28;20170;-71
2023/08/10 08:24:04;;;;;;;2.33;1.50;;;23.10;99.90;;;;;;5040493;28;20194;-71
2023/08/10 08:26:32;;;;;;;5.87;4.60;;;23.50;99.90;;;;;;5043413;28;20185;-71
2023/08/10 08:28:58;;;;;;;2.50;1.43;;;23.40;99.90;;;;;;5045643;28;20641;-72
2023/08/10 08:31:25;;;;;;;3.40;1.83;;;22.00;99.90;;;;;;5040621;28;20426;-70
2023/08/10 08:33:51;;;;;;;1.83;1.40;;;22.70;99.90;;;;;;5041976;28;20461;-70
2023/08/10 08:36:17;;;;;;;2.93;1.73;;;22.80;99.90;;;;;;5042013;28;20460;-71
2023/08/10 08:38:43;;;;;;;2.67;1.27;;;24.00;99.90;;;;;;5042337;28;20818;-71
2023/08/10 08:41:10;;;;;;;4.50;1.50;;;25.40;99.90;;;;;;5023022;28;20437;-71
2023/08/10 08:43:37;;;;;;;1.90;1.10;;;25.20;99.90;;;;;;5039037;28;20365;-70
2023/08/10 08:46:04;;;;;;;5.20;3.07;;;24.00;99.90;;;;;;5043104;28;20464;-74
2023/08/10 08:48:30;;;;;;;9.60;7.27;;;24.10;99.90;;;;;;5043686;28;20494;-71
2023/08/10 08:50:57;;;;;;;9.50;8.53;;;24.40;99.90;;;;;;5045368;28;20444;-72
2023/08/10 08:53:24;;;;;;;2.77;1.60;;;24.40;99.90;;;;;;5044644;28;20439;-71
2023/08/10 08:55:50;;;;;;;4.23;2.17;;;24.40;99.90;;;;;;5044825;28;20461;-71
2023/08/10 08:58:17;;;;;;;4.80;2.00;;;23.70;99.90;;;;;;5043772;28;20428;-70
2023/08/10 09:01:03;;;;;;;3.53;1.70;;;23.50;99.90;;;;;;5039100;28;20438;-70
2023/08/10 09:03:29;;;;;;;2.87;1.70;;;22.10;99.90;;;;;;5040502;28;20425;-70
2023/08/10 09:05:55;;;;;;;2.63;1.97;;;21.70;99.90;;;;;;5044587;28;20445;-70
2023/08/10 09:08:21;;;;;;;4.67;1.70;;;22.00;99.90;;;;;;5025349;28;20519;-70
2023/08/10 09:10:47;;;;;;;3.20;1.70;;;22.30;99.90;;;;;;5044490;28;20818;-70
2023/08/10 09:13:18;;;;;;;2.40;1.40;;;21.70;99.90;;;;;;5042403;28;20483;-71
2023/08/10 09:15:44;;;;;;;3.00;1.20;;;22.10;99.90;;;;;;5041011;28;20491;-71
2023/08/10 09:18:10;;;;;;;3.20;1.30;;;22.20;99.90;;;;;;5040208;28;20420;-73
2023/08/10 09:20:36;;;;;;;1.80;1.47;;;22.60;99.90;;;;;;5038539;28;20982;-69
2023/08/10 09:23:02;;;;;;;4.87;1.60;;;22.40;99.90;;;;;;5039888;28;20174;-70
2023/08/10 09:25:38;;;;;;;2.53;1.30;;;22.90;99.90;;;;;;5039470;28;20445;-71
2023/08/10 09:28:12;;;;;;;2.50;1.57;;;22.70;99.90;;;;;;5024329;28;20178;-70
2023/08/10 09:30:38;;;;;;;3.33;1.77;;;22.80;99.90;;;;;;5037695;28;20517;-73
2023/08/10 09:33:04;;;;;;;5.70;2.40;;;23.20;99.90;;;;;;5040533;28;20803;-71
2023/08/10 09:35:31;;;;;;;3.87;2.30;;;23.00;99.90;;;;;;5042189;28;20453;-70
2023/08/10 09:38:02;;;;;;;3.40;1.47;;;23.20;99.90;;;;;;5037460;28;20478;-70
2023/08/10 09:40:27;;;;;;;3.87;3.10;;;23.10;99.90;;;;;;5041848;28;20429;-70
2023/08/10 09:42:53;;;;;;;4.90;1.87;;;22.50;99.90;;;;;;5041252;28;20575;-70
2023/08/10 09:45:19;;;;;;;2.20;1.17;;;23.10;99.90;;;;;;5043299;28;20248;-71
2023/08/10 09:47:45;;;;;;;2.63;1.40;;;21.50;99.90;;;;;;5044500;28;20559;-70
2023/08/10 09:50:13;;;;;;;6.90;4.10;;;22.00;99.90;;;;;;5045069;28;20186;-71
2023/08/10 09:52:40;;;;;;;2.70;1.33;;;22.30;99.90;;;;;;5052630;28;20175;-70
2023/08/10 09:55:07;;;;;;;3.30;1.30;;;22.80;99.90;;;;;;5033572;28;20485;-72
2023/08/10 09:57:34;;;;;;;5.60;1.33;;;21.60;99.90;;;;;;5049065;28;20428;-72
2023/08/10 10:00:00;;;;;;;3.00;1.50;;;21.70;99.90;;;;;;5047654;28;20428;-72
2023/08/10 10:02:26;;;;;;;3.97;1.47;;;22.40;99.90;;;;;;5045511;28;20425;-69
2023/08/10 10:04:52;;;;;;;2.20;1.47;;;22.70;99.90;;;;;;5044477;28;20208;-69
2023/08/10 10:07:24;;;;;;;2.13;1.33;;;21.40;99.90;;;;;;5046327;28;20426;-70
2023/08/10 10:09:50;;;;;;;4.40;1.50;;;21.30;99.90;;;;;;5023426;28;20476;-71
2023/08/10 10:12:16;;;;;;;4.97;3.00;;;21.90;99.90;;;;;;5041728;28;20474;-71
2023/08/10 10:14:44;;;;;;;4.60;1.60;;;22.40;99.90;;;;;;5041337;28;20235;-70
2023/08/10 10:17:12;;;;;;;5.80;1.40;;;22.20;99.90;;;;;;5040837;28;20581;-70
2023/08/10 10:19:38;;;;;;;3.37;1.80;;;21.30;99.90;;;;;;5043551;28;20775;-69
2023/08/10 10:22:05;;;;;;;2.50;1.60;;;21.70;99.90;;;;;;5043530;28;20428;-71
2023/08/10 10:24:34;;;;;;;3.37;1.90;;;22.70;99.90;;;;;;5045502;28;20443;-70
2023/08/10 10:27:08;;;;;;;3.73;1.83;;;22.50;99.90;;;;;;5044700;28;20785;-70
2023/08/10 10:29:48;;;;;;;2.93;1.37;;;21.90;99.90;;;;;;5044394;28;20473;-70
2023/08/10 10:32:16;;;;;;;4.20;1.40;;;21.80;99.90;;;;;;5046374;28;20476;-71
2023/08/10 10:34:42;;;;;;;6.47;1.50;;;20.80;99.90;;;;;;5048428;28;20456;-69
2023/08/10 10:37:12;;;;;;;2.47;1.80;;;20.80;99.90;;;;;;5046858;28;20417;-70
2023/08/10 10:39:43;;;;;;;7.23;1.77;;;20.80;99.90;;;;;;5049574;28;20476;-70
2023/08/10 10:42:14;;;;;;;4.37;2.00;;;21.70;99.90;;;;;;5047963;28;20954;-70
2023/08/10 10:45:00;;;;;;;5.60;2.17;;;22.30;99.90;;;;;;5040531;28;20531;-70
2023/08/10 10:47:39;;;;;;;3.07;1.70;;;22.00;99.90;;;;;;5043864;28;20526;-70
2023/08/10 10:50:14;;;;;;;3.23;2.20;;;21.20;99.90;;;;;;5047959;28;20435;-69
2023/08/10 10:52:40;;;;;;;4.83;2.10;;;21.40;99.90;;;;;;5047334;28;20425;-69
2023/08/10 10:55:09;;;;;;;3.07;1.20;;;21.70;99.90;;;;;;5050946;28;26459;-71
2023/08/10 10:57:38;;;;;;;5.10;1.50;;;21.00;99.90;;;;;;5059503;28;20199;-70
2023/08/10 11:00:05;;;;;;;4.40;2.07;;;20.60;99.90;;;;;;5051791;28;20428;-70
2023/08/10 11:02:31;;;;;;;3.67;1.90;;;20.90;99.90;;;;;;5043208;28;20461;-70
2023/08/10 11:04:57;;;;;;;2.10;1.70;;;21.60;99.90;;;;;;5045301;28;20474;-71
2023/08/10 11:07:23;;;;;;;6.17;1.67;;;21.50;99.90;;;;;;5047681;28;20957;-70
2023/08/10 11:09:48;;;;;;;2.40;1.83;;;21.20;99.90;;;;;;5047272;28;20173;-71
2023/08/10 11:12:17;;;;;;;3.33;1.50;;;21.30;99.90;;;;;;5044482;28;20446;-71
2023/08/10 11:14:43;;;;;;;3.77;1.50;;;21.10;99.90;;;;;;5022498;28;20216;-71
2023/08/10 11:17:09;;;;;;;3.93;1.60;;;20.90;99.90;;;;;;5045187;28;20425;-71
2023/08/10 11:19:34;;;;;;;4.50;1.97;;;20.70;99.90;;;;;;5047694;28;20711;-70
2023/08/10 11:22:01;;;;;;;2.40;1.30;;;20.60;99.90;;;;;;5044882;28;20564;-70
2023/08/10 11:24:29;;;;;;;3.30;1.93;;;20.80;99.90;;;;;;5043881;28;20194;-69
2023/08/10 11:26:57;;;;;;;2.77;1.37;;;20.90;99.90;;;;;;5021169;28;20936;-69
2023/08/10 11:29:22;;;;;;;3.77;1.70;;;20.80;99.90;;;;;;5045851;28;20458;-69
2023/08/10 11:31:49;;;;;;;3.50;1.67;;;21.00;99.90;;;;;;5025923;28;20428;-71
2023/08/10 11:34:23;;;;;;;4.03;1.80;;;20.80;99.90;;;;;;5044521;28;20193;-69
2023/08/10 11:36:49;;;;;;;4.33;1.67;;;21.10;99.90;;;;;;5045537;28;20569;-72
2023/08/10 11:39:15;;;;;;;4.07;1.63;;;21.00;99.90;;;;;;5045517;28;20443;-72
2023/08/10 11:41:45;;;;;;;7.80;1.73;;;21.10;99.90;;;;;;5043760;28;20433;-71
2023/08/10 11:44:25;;;;;;;2.33;1.70;;;20.30;99.90;;;;;;5044894;28;20248;-71
2023/08/10 11:46:50;;;;;;;2.90;1.50;;;20.60;99.90;;;;;;5044273;28;20506;-70
2023/08/10 11:49:16;;;;;;;3.27;1.50;;;21.20;99.90;;;;;;5045787;28;20551;-70
2023/08/10 11:51:42;;;;;;;4.37;1.67;;;21.40;99.90;;;;;;5046419;28;20181;-71
2023/08/10 11:54:09;;;;;;;7.60;1.73;;;21.70;99.90;;;;;;5048574;28;20193;-70
2023/08/10 11:56:44;;;;;;;7.23;3.97;;;21.70;99.90;;;;;;5044842;28;20456;-70
2023/08/10 11:59:14;;;;;;;4.07;1.50;;;22.20;99.90;;;;;;5048813;28;24462;-71
2023/08/10 12:01:54;;;;;;;3.30;1.40;;;22.10;99.90;;;;;;5050364;28;20449;-71
2023/08/10 12:04:20;;;;;;;2.60;1.23;;;21.90;99.90;;;;;;5051819;28;20845;-70
2023/08/10 12:06:46;;;;;;;5.27;1.80;;;22.10;99.90;;;;;;5051576;28;20801;-70
2023/08/10 12:09:12;;;;;;;4.17;1.50;;;22.00;99.90;;;;;;5053488;28;20412;-70
2023/08/10 12:11:39;;;;;;;5.37;1.40;;;22.00;99.90;;;;;;5063227;28;20416;-70
2023/08/10 12:14:08;;;;;;;3.13;1.73;;;21.70;99.90;;;;;;5057708;28;20572;-70
2023/08/10 12:16:34;;;;;;;2.53;1.60;;;21.30;99.90;;;;;;5072383;22;20456;-73
2023/08/10 12:19:00;;;;;;;5.67;1.70;;;21.60;99.90;;;;;;5081000;28;20422;-73
2023/08/10 12:21:26;;;;;;;3.27;1.37;;;22.00;99.90;;;;;;5093952;28;20908;-73
2023/08/10 12:23:52;;;;;;;2.63;1.10;;;22.50;99.90;;;;;;5091199;28;20419;-73
2023/08/10 12:26:17;;;;;;;3.83;1.50;;;22.10;99.90;;;;;;5104475;28;20180;-73
2023/08/10 12:28:43;;;;;;;8.37;1.63;;;21.70;99.90;;;;;;5082527;28;20665;-73
2023/08/10 12:31:09;;;;;;;6.30;1.40;;;21.80;99.90;;;;;;5082659;28;20615;-73
2023/08/10 12:33:34;;;;;;;2.97;1.77;;;21.30;99.90;;;;;;5077278;28;20180;-73
2023/08/10 12:36:01;;;;;;;2.80;1.50;;;20.90;99.90;;;;;;5087536;28;20606;-72
2023/08/10 12:38:27;;;;;;;6.50;2.00;;;21.10;99.90;;;;;;5086404;28;20675;-73
2023/08/10 12:40:53;;;;;;;5.20;2.00;;;21.30;99.90;;;;;;5082716;28;20450;-73
2023/08/10 12:43:21;;;;;;;3.00;1.57;;;21.60;99.90;;;;;;5079578;28;20451;-73